createdAt,value
2018-04-22T00:00:44.356Z,99.90
2018-04-22T00:03:11.991Z,99.90
2018-04-22T00:05:39.602Z,99.90
2018-04-22T00:08:07.237Z,99.90
2018-04-22T00:10:34.852Z,99.90
2018-04-22T00:13:02.484Z,99.90
2018-04-22T00:15:30.861Z,99.90
2018-04-22T00:17:59.253Z,99.90
2018-04-22T00:20:27.618Z,99.90
2018-04-22T00:22:55.996Z,99.90
2018-04-22T00:25:24.395Z,99.90
2018-04-22T00:27:51.997Z,99.90
2018-04-22T00:30:20.106Z,99.90
2018-04-22T00:32:49.439Z,99.90
2018-04-22T00:35:17.073Z,99.90
2018-04-22T00:37:45.447Z,99.90
2018-04-22T00:40:13.844Z,99.90
2018-04-22T00:42:41.450Z,99.90
2018-04-22T00:45:09.090Z,99.90
2018-04-22T00:47:36.689Z,99.90
2018-04-22T00:50:04.330Z,99.90
2018-04-22T00:52:31.943Z,99.90
2018-04-22T00:54:59.565Z,99.90
2018-04-22T00:57:27.162Z,99.90
2018-04-22T00:59:54.792Z,99.90
2018-04-22T01:02:22.406Z,99.90
2018-04-22T01:04:50.052Z,99.90
2018-04-22T01:07:18.147Z,99.90
2018-04-22T01:09:45.751Z,99.90
2018-04-22T01:12:14.151Z,99.90
2018-04-22T01:14:41.769Z,99.90
2018-04-22T01:17:09.412Z,99.90
2018-04-22T01:19:37.028Z,99.90
2018-04-22T01:22:05.415Z,99.90
2018-04-22T01:24:33.025Z,99.90
2018-04-22T01:27:00.680Z,99.90
2018-04-22T01:29:28.291Z,99.90
2018-04-22T01:31:55.960Z,99.90
2018-04-22T01:34:23.564Z,99.90
2018-04-22T01:36:51.196Z,99.90
2018-04-22T01:39:20.150Z,99.90
2018-04-22T01:41:48.544Z,99.90
2018-04-22T01:44:16.921Z,99.90
2018-04-22T01:46:45.336Z,99.90
2018-04-22T01:49:12.946Z,99.90
2018-04-22T01:51:41.350Z,99.90
2018-04-22T01:54:08.964Z,99.90
2018-04-22T01:56:36.617Z,99.90
2018-04-22T01:59:04.211Z,99.90
2018-04-22T02:01:32.604Z,99.90
2018-04-22T02:04:00.222Z,99.90
2018-04-22T02:06:27.888Z,99.90
2018-04-22T02:08:55.499Z,99.90
2018-04-22T02:11:23.179Z,99.90
2018-04-22T02:13:50.767Z,99.90
2018-04-22T02:16:19.384Z,99.90
2018-04-22T02:18:48.423Z,99.90
2018-04-22T02:21:16.064Z,99.90
2018-04-22T02:23:43.687Z,99.90
2018-04-22T02:26:12.066Z,99.90
2018-04-22T02:28:40.460Z,99.90
2018-04-22T02:31:08.075Z,99.90
2018-04-22T02:33:35.713Z,99.90
2018-04-22T02:36:03.330Z,99.90
2018-04-22T02:38:31.732Z,99.90
2018-04-22T02:40:59.340Z,99.90
2018-04-22T02:43:27.001Z,99.90
2018-04-22T02:45:54.654Z,99.90
2018-04-22T02:48:22.265Z,99.90
2018-04-22T02:50:49.895Z,99.90
2018-04-22T02:53:18.130Z,99.90
2018-04-22T02:55:45.761Z,99.90
2018-04-22T02:58:13.379Z,99.90
2018-04-22T03:00:41.012Z,99.90
2018-04-22T03:03:08.616Z,99.90
2018-04-22T03:05:37.036Z,99.90
2018-04-22T03:08:04.647Z,99.90
2018-04-22T03:10:32.268Z,99.90
2018-04-22T03:12:59.882Z,99.90
2018-04-22T03:15:28.285Z,99.90
2018-04-22T03:17:55.900Z,99.90
2018-04-22T03:20:23.530Z,99.90
2018-04-22T03:22:51.141Z,99.90
2018-04-22T03:25:19.642Z,99.90
2018-04-22T03:27:47.289Z,99.90
2018-04-22T03:30:15.806Z,99.90
2018-04-22T03:32:43.445Z,99.90
2018-04-22T03:35:11.062Z,99.90
2018-04-22T03:37:38.702Z,99.90
2018-04-22T03:40:06.354Z,99.90
2018-04-22T03:42:34.031Z,99.90
2018-04-22T03:45:01.630Z,99.90
2018-04-22T03:47:30.041Z,99.90
2018-04-22T03:49:57.653Z,99.90
2018-04-22T03:52:25.297Z,99.90
2018-04-22T03:54:52.891Z,99.90
2018-04-22T03:57:21.313Z,99.90
2018-04-22T03:59:50.137Z,99.90
2018-04-22T04:02:18.767Z,99.90
2018-04-22T04:04:46.368Z,99.90
2018-04-22T04:07:14.006Z,99.90
2018-04-22T04:09:41.619Z,99.90
2018-04-22T04:12:10.021Z,99.90
2018-04-22T04:14:37.662Z,99.90
2018-04-22T04:17:06.050Z,99.90
2018-04-22T04:19:45.562Z,99.90
2018-04-22T04:22:24.948Z,99.90
2018-04-22T04:25:04.337Z,99.90
2018-04-22T04:27:45.203Z,99.90
2018-04-22T04:30:12.845Z,99.90
2018-04-22T04:32:40.457Z,99.90
2018-04-22T04:35:08.093Z,99.90
2018-04-22T04:37:36.472Z,99.90
2018-04-22T04:40:04.882Z,99.90
2018-04-22T04:42:32.524Z,99.90
2018-04-22T04:45:00.906Z,99.90
2018-04-22T04:47:29.283Z,99.90
2018-04-22T04:49:56.910Z,99.90
2018-04-22T04:52:24.511Z,99.90
2018-04-22T04:54:52.146Z,99.90
2018-04-22T04:57:19.761Z,99.90
2018-04-22T04:59:48.054Z,99.90
2018-04-22T05:02:15.656Z,99.90
2018-04-22T05:04:43.302Z,99.90
2018-04-22T05:07:10.939Z,99.90
2018-04-22T05:09:38.533Z,99.90
2018-04-22T05:12:06.928Z,99.90
2018-04-22T05:14:34.538Z,99.90
2018-04-22T05:17:02.184Z,99.90
2018-04-22T05:19:29.799Z,99.90
2018-04-22T05:21:58.177Z,99.90
2018-04-22T05:24:26.552Z,99.90
2018-04-22T05:26:54.949Z,99.90
2018-04-22T05:29:22.556Z,99.90
2018-04-22T05:31:50.189Z,99.90
2018-04-22T05:34:19.058Z,99.90
2018-04-22T05:36:46.692Z,99.90
2018-04-22T05:39:15.075Z,99.90
2018-04-22T05:41:43.504Z,99.90
2018-04-22T05:44:11.101Z,99.90
2018-04-22T05:46:38.749Z,99.90
2018-04-22T05:49:06.366Z,99.90
2018-04-22T05:51:34.013Z,99.90
2018-04-22T05:54:01.633Z,99.90
2018-04-22T05:56:29.222Z,99.90
2018-04-22T05:58:56.877Z,99.90
2018-04-22T06:01:25.280Z,99.90
2018-04-22T06:03:52.923Z,99.90
2018-04-22T06:06:21.287Z,99.90
2018-04-22T06:08:49.898Z,99.90
2018-04-22T06:11:18.102Z,99.90
2018-04-22T06:13:45.743Z,99.90
2018-04-22T06:16:13.366Z,99.90
2018-04-22T06:18:41.779Z,99.90
2018-04-22T06:21:09.396Z,99.90
2018-04-22T06:23:37.040Z,99.90
2018-04-22T06:26:05.043Z,99.90
2018-04-22T06:28:33.517Z,99.90
2018-04-22T06:31:01.898Z,99.90
2018-04-22T06:33:30.294Z,99.90
2018-04-22T06:35:57.912Z,99.90
2018-04-22T06:38:25.568Z,99.90
2018-04-22T06:40:53.198Z,99.90
2018-04-22T06:43:20.807Z,99.90
2018-04-22T06:45:49.350Z,99.90
2018-04-22T06:48:16.988Z,99.90
2018-04-22T06:50:44.639Z,99.90
2018-04-22T06:53:12.253Z,99.90
2018-04-22T06:55:39.902Z,99.90
2018-04-22T06:58:07.537Z,99.90
2018-04-22T07:00:35.179Z,99.90
2018-04-22T07:03:02.897Z,99.90
2018-04-22T07:05:30.543Z,99.90
2018-04-22T07:07:58.180Z,99.90
2018-04-22T07:10:25.821Z,99.90
2018-04-22T07:12:53.465Z,99.90
2018-04-22T07:15:21.908Z,99.90
2018-04-22T07:17:50.099Z,99.90
2018-04-22T07:20:18.371Z,99.90
2018-04-22T07:22:46.016Z,99.90
2018-04-22T07:25:13.622Z,99.90
2018-04-22T07:27:42.027Z,99.90
2018-04-22T07:30:09.649Z,99.90
2018-04-22T07:32:37.283Z,99.90
2018-04-22T07:35:04.909Z,99.60
2018-04-22T07:37:32.556Z,99.90
2018-04-22T07:40:00.202Z,99.90
2018-04-22T07:42:28.644Z,99.90
2018-04-22T07:44:56.261Z,99.90
2018-04-22T07:47:23.909Z,99.90
2018-04-22T07:49:52.280Z,97.90
2018-04-22T07:52:20.691Z,99.80
2018-04-22T07:54:49.400Z,99.90
2018-04-22T07:57:17.042Z,95.00
2018-04-22T07:59:44.673Z,96.50
2018-04-22T08:02:13.127Z,96.20
2018-04-22T08:04:40.781Z,96.20
2018-04-22T08:07:08.454Z,97.40
2018-04-22T08:09:36.100Z,93.50
2018-04-22T08:12:03.730Z,96.40
2018-04-22T08:14:31.406Z,94.70
2018-04-22T08:16:59.044Z,94.50
2018-04-22T08:19:26.710Z,96.40
2018-04-22T08:21:54.336Z,95.40
2018-04-22T08:24:22.758Z,93.10
2018-04-22T08:26:50.397Z,93.20
2018-04-22T08:29:18.090Z,95.10
2018-04-22T08:31:45.771Z,94.50
2018-04-22T08:34:13.458Z,91.00
2018-04-22T08:36:41.109Z,90.80
2018-04-22T08:39:09.586Z,95.50
2018-04-22T08:41:38.012Z,93.40
2018-04-22T08:44:05.698Z,93.00
2018-04-22T08:46:33.337Z,88.30
2018-04-22T08:49:00.994Z,91.80
2018-04-22T08:51:28.637Z,91.20
2018-04-22T08:53:56.329Z,90.90
2018-04-22T08:56:24.058Z,90.30
2018-04-22T08:58:51.695Z,91.30
2018-04-22T09:01:20.485Z,89.50
2018-04-22T09:03:48.560Z,87.90
2018-04-22T09:06:16.989Z,83.20
2018-04-22T09:08:44.609Z,83.10
2018-04-22T09:11:12.273Z,90.30
2018-04-22T09:13:40.671Z,79.80
2018-04-22T09:16:08.338Z,79.60
2018-04-22T09:18:35.985Z,74.30
2018-04-22T09:21:03.622Z,83.60
2018-04-22T09:23:31.278Z,77.30
2018-04-22T09:25:58.934Z,80.10
2018-04-22T09:28:26.595Z,82.00
2018-04-22T09:30:54.256Z,75.30
2018-04-22T09:33:21.917Z,73.10
2018-04-22T09:35:50.143Z,72.90
2018-04-22T09:38:18.849Z,69.70
2018-04-22T09:40:46.491Z,71.20
2018-04-22T09:43:14.153Z,75.50
2018-04-22T09:45:41.794Z,71.60
2018-04-22T09:48:09.666Z,71.50
2018-04-22T09:50:37.296Z,71.30
2018-04-22T09:53:04.972Z,63.30
2018-04-22T09:55:33.376Z,62.90
2018-04-22T09:58:01.058Z,62.70
2018-04-22T10:00:32.742Z,63.50
2018-04-22T10:03:06.969Z,58.30
2018-04-22T10:05:40.394Z,62.20
2018-04-22T10:08:08.065Z,61.60
2018-04-22T10:10:35.717Z,57.50
2018-04-22T10:13:03.401Z,59.10
2018-04-22T10:15:31.075Z,56.20
2018-04-22T10:17:58.743Z,56.10
2018-04-22T10:20:26.424Z,57.80
2018-04-22T10:22:54.118Z,59.60
2018-04-22T10:25:21.768Z,59.90
2018-04-22T10:27:50.606Z,60.30
2018-04-22T10:30:19.316Z,55.20
2018-04-22T10:32:47.210Z,63.00
2018-04-22T10:35:14.876Z,59.10
2018-04-22T10:37:43.294Z,57.20
2018-04-22T10:40:10.988Z,57.30
2018-04-22T10:42:38.604Z,58.30
2018-04-22T10:45:07.041Z,57.00
2018-04-22T10:47:35.441Z,59.60
2018-04-22T10:50:03.878Z,58.00
2018-04-22T10:52:31.531Z,57.90
2018-04-22T10:54:59.210Z,57.50
2018-04-22T10:57:26.867Z,56.00
2018-04-22T10:59:54.578Z,57.90
2018-04-22T11:02:22.200Z,56.50
2018-04-22T11:04:49.920Z,55.20
2018-04-22T11:07:18.130Z,49.30
2018-04-22T11:09:45.783Z,54.30
2018-04-22T11:12:13.441Z,54.00
2018-04-22T11:14:41.113Z,50.10
2018-04-22T11:17:08.758Z,52.80
2018-04-22T11:19:36.384Z,55.00
2018-04-22T11:22:04.072Z,54.60
2018-04-22T11:24:31.670Z,52.70
2018-04-22T11:26:59.321Z,49.40
2018-04-22T11:29:26.996Z,52.20
2018-04-22T11:31:55.435Z,57.20
2018-04-22T11:34:23.124Z,57.30
2018-04-22T11:36:50.788Z,51.70
2018-04-22T11:39:19.381Z,47.30
2018-04-22T11:41:47.024Z,50.60
2018-04-22T11:44:14.708Z,55.40
2018-04-22T11:46:43.150Z,53.90
2018-04-22T11:49:10.825Z,53.90
2018-04-22T11:51:38.498Z,51.00
2018-04-22T11:54:06.166Z,53.30
2018-04-22T11:56:34.585Z,49.50
2018-04-22T11:59:02.293Z,49.50
2018-04-22T12:01:29.945Z,47.90
2018-04-22T12:03:57.630Z,47.90
2018-04-22T12:06:25.244Z,53.00
2018-04-22T12:08:52.941Z,48.60
2018-04-22T12:11:20.553Z,48.70
2018-04-22T12:13:49.173Z,53.30
2018-04-22T12:16:16.772Z,53.00
2018-04-22T12:18:45.177Z,49.20
2018-04-22T12:21:12.781Z,49.30
2018-04-22T12:23:40.429Z,50.30
2018-04-22T12:26:08.065Z,50.50
2018-04-22T12:28:35.685Z,55.50
2018-04-22T12:31:04.061Z,56.10
2018-04-22T12:33:32.477Z,52.70
2018-04-22T12:36:00.098Z,52.70
2018-04-22T12:38:28.520Z,49.50
2018-04-22T12:40:56.132Z,49.40
2018-04-22T12:43:23.753Z,53.80
2018-04-22T12:45:51.390Z,51.30
2018-04-22T12:48:20.321Z,53.50
2018-04-22T12:50:48.935Z,55.30
2018-04-22T12:53:17.985Z,53.00
2018-04-22T12:55:45.631Z,53.00
2018-04-22T12:58:13.249Z,52.60
2018-04-22T13:00:41.661Z,51.80
2018-04-22T13:03:09.269Z,51.80
2018-04-22T13:05:36.901Z,52.30
2018-04-22T13:08:04.509Z,50.50
2018-04-22T13:10:32.936Z,51.50
2018-04-22T13:13:00.558Z,51.40
2018-04-22T13:15:28.968Z,50.40
2018-04-22T13:17:57.389Z,52.10
2018-04-22T13:20:25.043Z,52.10
2018-04-22T13:22:52.665Z,51.50
2018-04-22T13:25:20.318Z,50.70
2018-04-22T13:27:49.050Z,52.60
2018-04-22T13:30:16.656Z,48.70
2018-04-22T13:32:44.293Z,49.70
2018-04-22T13:35:11.927Z,48.80
2018-04-22T13:37:39.581Z,54.30
2018-04-22T13:40:07.243Z,48.60
2018-04-22T13:42:34.909Z,51.00
2018-04-22T13:45:02.541Z,50.30
2018-04-22T13:47:30.194Z,51.40
2018-04-22T13:49:57.828Z,49.20
2018-04-22T13:52:26.240Z,49.10
2018-04-22T13:54:53.860Z,49.10
2018-04-22T13:57:22.274Z,49.20
2018-04-22T13:59:49.897Z,49.10
2018-04-22T14:02:18.025Z,50.50
2018-04-22T14:04:45.652Z,48.40
2018-04-22T14:07:13.308Z,48.90
2018-04-22T14:09:40.946Z,48.50
2018-04-22T14:12:08.619Z,49.60
2018-04-22T14:14:37.026Z,49.70
2018-04-22T14:17:04.698Z,49.70
2018-04-22T14:19:32.328Z,46.40
2018-04-22T14:22:00.727Z,49.90
2018-04-22T14:24:28.380Z,49.90
2018-04-22T14:26:55.996Z,50.80
2018-04-22T14:29:23.644Z,50.30
2018-04-22T14:31:51.282Z,49.30
2018-04-22T14:34:19.889Z,49.40
2018-04-22T14:36:48.037Z,49.70
2018-04-22T14:39:15.694Z,49.80
2018-04-22T14:41:43.299Z,50.70
2018-04-22T14:44:22.734Z,52.80
2018-04-22T14:46:50.351Z,51.10
2018-04-22T14:49:19.168Z,49.60
2018-04-22T14:51:46.788Z,48.40
2018-04-22T14:54:14.441Z,49.70
2018-04-22T14:56:42.056Z,45.20
2018-04-22T14:59:09.713Z,48.30
2018-04-22T15:01:37.335Z,47.80
2018-04-22T15:04:04.986Z,48.60
2018-04-22T15:06:32.615Z,48.90
2018-04-22T15:09:00.268Z,50.20
2018-04-22T15:11:27.911Z,49.20
2018-04-22T15:13:55.517Z,48.50
2018-04-22T15:16:23.932Z,49.90
2018-04-22T15:18:52.313Z,46.40
2018-04-22T15:21:19.983Z,46.30
2018-04-22T15:23:47.979Z,47.60
2018-04-22T15:26:15.688Z,47.80
2018-04-22T15:28:44.065Z,45.00
2018-04-22T15:31:11.722Z,44.10
2018-04-22T15:33:41.413Z,43.20
2018-04-22T15:36:09.833Z,42.60
2018-04-22T15:38:37.457Z,42.60
2018-04-22T15:41:05.868Z,41.00
2018-04-22T15:43:33.502Z,40.80
2018-04-22T15:46:01.181Z,42.10
2018-04-22T15:48:28.818Z,44.00
2018-04-22T15:50:56.451Z,39.60
2018-04-22T15:53:24.111Z,43.70
2018-04-22T15:55:51.740Z,44.60
2018-04-22T15:58:20.641Z,43.70
2018-04-22T16:00:48.695Z,46.00
2018-04-22T16:03:16.377Z,46.30
2018-04-22T16:05:43.984Z,45.70
2018-04-22T16:08:12.434Z,45.50
2018-04-22T16:10:40.351Z,45.40
2018-04-22T16:13:08.948Z,46.10
2018-04-22T16:15:37.361Z,46.60
2018-04-22T16:18:05.022Z,46.50
2018-04-22T16:20:33.092Z,48.30
2018-04-22T16:23:00.754Z,47.70
2018-04-22T16:25:28.394Z,49.00
2018-04-22T16:27:56.055Z,47.90
2018-04-22T16:30:23.673Z,47.90
2018-04-22T16:32:51.355Z,49.60
2018-04-22T16:35:20.239Z,47.20
2018-04-22T16:37:48.621Z,48.30
2018-04-22T16:40:16.277Z,48.30
2018-04-22T16:42:43.894Z,51.20
2018-04-22T16:45:11.527Z,50.30
2018-04-22T16:47:39.157Z,50.20
2018-04-22T16:50:06.810Z,48.30
2018-04-22T16:52:35.233Z,47.40
2018-04-22T16:55:02.896Z,47.40
2018-04-22T16:57:30.532Z,47.10
2018-04-22T16:59:58.244Z,46.30
2018-04-22T17:02:25.863Z,44.70
2018-04-22T17:04:53.509Z,45.00
2018-04-22T17:07:21.157Z,45.80
2018-04-22T17:09:50.176Z,45.80
2018-04-22T17:12:19.139Z,48.40
2018-04-22T17:14:46.792Z,48.60
2018-04-22T17:17:15.187Z,48.80
2018-04-22T17:19:42.873Z,48.80
2018-04-22T17:22:10.588Z,50.00
2018-04-22T17:24:38.972Z,51.30
2018-04-22T17:27:07.687Z,51.30
2018-04-22T17:29:35.309Z,52.40
2018-04-22T17:32:03.813Z,54.00
2018-04-22T17:34:31.418Z,53.90
2018-04-22T17:36:59.053Z,54.90
2018-04-22T17:39:26.684Z,55.40
2018-04-22T17:41:54.354Z,57.80
2018-04-22T17:44:22.792Z,58.60
2018-04-22T17:46:50.492Z,58.50
2018-04-22T17:49:18.103Z,59.20
2018-04-22T17:51:45.798Z,59.70
2018-04-22T17:54:14.198Z,61.00
2018-04-22T17:56:41.957Z,60.20
2018-04-22T17:59:09.583Z,61.50
2018-04-22T18:01:37.298Z,62.10
2018-04-22T18:04:04.942Z,61.70
2018-04-22T18:06:32.687Z,61.80
2018-04-22T18:09:01.080Z,62.80
2018-04-22T18:11:28.723Z,62.80
2018-04-22T18:13:56.356Z,63.70
2018-04-22T18:16:23.979Z,64.30
2018-04-22T18:18:51.617Z,64.50
2018-04-22T18:21:19.997Z,67.20
2018-04-22T18:23:49.338Z,68.50
2018-04-22T18:26:16.945Z,68.60
2018-04-22T18:28:45.339Z,68.60
2018-04-22T18:31:13.725Z,68.90
2018-04-22T18:33:41.368Z,69.00
2018-04-22T18:36:09.777Z,70.70
2018-04-22T18:38:37.416Z,70.60
2018-04-22T18:41:05.061Z,72.70
2018-04-22T18:43:33.467Z,75.60
2018-04-22T18:46:01.088Z,75.50
2018-04-22T18:48:28.728Z,77.80
2018-04-22T18:50:56.338Z,77.80
2018-04-22T18:53:24.750Z,82.30
2018-04-22T18:55:52.371Z,82.30
2018-04-22T18:58:20.011Z,83.70
2018-04-22T19:00:48.070Z,84.60
2018-04-22T19:03:15.706Z,86.50
2018-04-22T19:05:43.366Z,86.60
2018-04-22T19:08:10.969Z,87.30
2018-04-22T19:10:38.635Z,87.20
2018-04-22T19:13:07.022Z,88.20
2018-04-22T19:15:35.436Z,88.90
2018-04-22T19:18:03.044Z,88.90
2018-04-22T19:20:30.690Z,90.10
2018-04-22T19:22:58.316Z,89.80
2018-04-22T19:25:25.990Z,90.70
2018-04-22T19:27:53.604Z,90.80
2018-04-22T19:30:22.037Z,90.90
2018-04-22T19:32:49.661Z,90.90
2018-04-22T19:35:18.074Z,91.70
2018-04-22T19:37:45.698Z,92.20
2018-04-22T19:40:13.344Z,92.50
2018-04-22T19:42:41.730Z,93.40
2018-04-22T19:45:10.172Z,93.90
2018-04-22T19:47:37.785Z,93.90
2018-04-22T19:50:05.408Z,93.50
2018-04-22T19:52:33.050Z,93.80
2018-04-22T19:55:00.676Z,94.20
2018-04-22T19:57:29.069Z,93.40
2018-04-22T19:59:56.673Z,93.40
2018-04-22T20:02:25.084Z,93.50
2018-04-22T20:04:52.688Z,93.50
2018-04-22T20:07:20.375Z,94.20
2018-04-22T20:09:48.028Z,93.70
2018-04-22T20:12:15.669Z,93.60
2018-04-22T20:14:43.288Z,93.90
2018-04-22T20:17:10.921Z,94.10
2018-04-22T20:19:39.304Z,94.00
2018-04-22T20:22:07.713Z,93.70
2018-04-22T20:24:35.329Z,93.70
2018-04-22T20:27:02.967Z,94.00
2018-04-22T20:29:30.590Z,93.80
2018-04-22T20:31:58.213Z,94.00
2018-04-22T20:34:25.849Z,94.60
2018-04-22T20:36:53.460Z,94.80
2018-04-22T20:39:21.100Z,94.30
2018-04-22T20:41:50.601Z,94.10
2018-04-22T20:44:20.136Z,94.00
2018-04-22T20:46:48.354Z,94.10
2018-04-22T20:49:16.001Z,94.10
2018-04-22T20:51:43.601Z,94.60
2018-04-22T20:54:11.233Z,94.80
2018-04-22T20:56:38.848Z,94.50
2018-04-22T20:59:06.504Z,94.80
2018-04-22T21:01:34.866Z,99.40
2018-04-22T21:04:03.275Z,98.80
2018-04-22T21:06:30.896Z,98.70
2018-04-22T21:08:59.383Z,97.90
2018-04-22T21:11:27.761Z,97.80
2018-04-22T21:13:55.421Z,97.70
2018-04-22T21:16:23.045Z,97.40
2018-04-22T21:18:50.770Z,97.40
2018-04-22T21:21:19.438Z,96.90
2018-04-22T21:23:49.015Z,97.00
2018-04-22T21:26:16.659Z,97.00
2018-04-22T21:28:44.289Z,97.20
2018-04-22T21:31:11.927Z,97.70
2018-04-22T21:33:40.393Z,98.30
2018-04-22T21:36:08.801Z,98.70
2018-04-22T21:38:36.438Z,98.70
2018-04-22T21:41:04.850Z,99.90
2018-04-22T21:43:32.562Z,99.90
2018-04-22T21:46:01.036Z,99.80
2018-04-22T21:48:28.695Z,99.90
2018-04-22T21:50:56.320Z,99.90
2018-04-22T21:53:31.584Z,99.90
2018-04-22T21:55:59.252Z,99.90
2018-04-22T21:58:26.930Z,99.90
2018-04-22T22:00:54.560Z,99.90
2018-04-22T22:03:22.252Z,99.90
2018-04-22T22:05:49.897Z,99.90
2018-04-22T22:08:18.046Z,99.90
2018-04-22T22:10:46.544Z,99.90
2018-04-22T22:13:14.233Z,99.90
2018-04-22T22:15:41.844Z,99.90
2018-04-22T22:18:09.471Z,99.90
2018-04-22T22:20:37.837Z,99.90
2018-04-22T22:23:05.516Z,99.90
2018-04-22T22:25:33.877Z,99.90
2018-04-22T22:28:01.556Z,99.90
2018-04-22T22:30:29.172Z,99.90
2018-04-22T22:32:56.922Z,99.90
2018-04-22T22:35:24.517Z,99.90
2018-04-22T22:37:52.149Z,99.90
2018-04-22T22:40:19.756Z,99.90
2018-04-22T22:42:49.288Z,99.90
2018-04-22T22:45:16.903Z,99.90
2018-04-22T22:47:44.545Z,99.90
2018-04-22T22:50:12.172Z,99.90
2018-04-22T22:52:39.915Z,99.90
2018-04-22T22:55:07.525Z,99.90
2018-04-22T22:57:35.117Z,99.90
2018-04-22T23:00:03.513Z,99.90
2018-04-22T23:02:31.973Z,99.90
2018-04-22T23:04:59.605Z,99.90
2018-04-22T23:07:27.213Z,99.90
2018-04-22T23:09:55.600Z,99.90
2018-04-22T23:12:23.636Z,99.90
2018-04-22T23:14:51.311Z,99.90
2018-04-22T23:17:19.731Z,99.90
2018-04-22T23:19:47.363Z,99.90
2018-04-22T23:22:15.023Z,99.90
2018-04-22T23:24:43.457Z,99.90
2018-04-22T23:27:11.141Z,99.90
2018-04-22T23:29:38.844Z,99.90
2018-04-22T23:32:06.456Z,99.90
2018-04-22T23:34:34.097Z,99.90
2018-04-22T23:37:01.732Z,99.90
2018-04-22T23:39:29.364Z,99.90
2018-04-22T23:41:57.250Z,99.90
2018-04-22T23:44:24.968Z,99.90
2018-04-22T23:46:53.459Z,99.90
2018-04-22T23:49:21.237Z,99.90
2018-04-22T23:51:48.918Z,99.90
2018-04-22T23:54:16.529Z,99.90
2018-04-22T23:56:44.152Z,99.90
2018-04-22T23:59:11.784Z,99.90
